Time;durP1;ratioP1;P1;durP2;ratioP2;P2;SDS_P1;SDS_P2;PMS_P1;PMS_P2;Temp;Humidity;BMP_temperature;BMP_pressure;BME280_temperature;BME280_humidity;BME280_pressure;Samples;Min_cycle;Max_cycle;Signal;HPM_P1;HPM_P2
2023/08/28 00:00:10;;;;;;;13.68;9.48;;;;;;;22.87;nan;99628.25;5031146;28;20024;-71
2023/08/28 00:02:36;;;;;;;18.60;10.32;;;;;;;22.85;nan;99676.09;5026988;28;20021;-71
2023/08/28 00:05:01;;;;;;;16.38;9.70;;;;;;;22.87;nan;99699.94;5029138;28;20036;-70
2023/08/28 00:07:27;;;;;;;17.25;10.52;;;;;;;22.81;nan;99669.00;5027100;28;20025;-69
2023/08/28 00:09:52;;;;;;;17.10;9.20;;;;;;;22.84;nan;99679.91;5048751;28;20403;-71
2023/08/28 00:12:18;;;;;;;13.80;9.68;;;;;;;22.78;nan;99605.25;5046951;28;20055;-71
2023/08/28 00:14:43;;;;;;;16.60;10.05;;;;;;;22.75;nan;99649.63;5048873;28;20475;-70
2023/08/28 00:17:09;;;;;;;15.88;10.15;;;;;;;22.76;nan;99653.09;5047001;28;20028;-71
2023/08/28 00:19:34;;;;;;;15.18;9.95;;;;;;;22.72;nan;99610.81;5048664;28;20728;-71
2023/08/28 00:21:59;;;;;;;20.15;10.63;;;;;;;22.67;nan;99653.94;5048664;28;20591;-71
2023/08/28 00:24:25;;;;;;;15.93;10.23;;;;;;;22.65;nan;99640.06;5045182;28;20045;-70
2023/08/28 00:26:50;;;;;;;19.42;10.40;;;;;;;22.58;nan;99596.03;5029190;28;20474;-71
2023/08/28 00:29:15;;;;;;;17.55;10.88;;;;;;;22.57;nan;99678.44;5048445;28;20032;-71
2023/08/28 00:31:41;;;;;;;15.10;10.23;;;;;;;22.55;nan;99643.09;5047144;28;20510;-71
2023/08/28 00:34:06;;;;;;;15.02;10.43;;;;;;;22.52;nan;99649.13;5020383;28;20024;-71
2023/08/28 00:36:31;;;;;;;18.75;9.95;;;;;;;22.51;nan;99677.06;5047033;28;20055;-71
2023/08/28 00:38:57;;;;;;;15.20;9.97;;;;;;;22.54;nan;99632.69;5030749;28;20040;-70
2023/08/28 00:41:22;;;;;;;15.93;10.38;;;;;;;22.56;nan;99643.91;5045597;28;20297;-70
2023/08/28 00:43:47;;;;;;;18.27;10.32;;;;;;;22.59;nan;99646.72;5031620;28;20458;-71
2023/08/28 00:46:14;;;;;;;15.23;9.90;;;;;;;22.58;nan;99636.28;5044753;28;20028;-71
2023/08/28 00:48:40;;;;;;;14.88;10.32;;;;;;;22.54;nan;99585.19;5049272;28;20043;-69
2023/08/28 00:51:06;;;;;;;17.08;9.98;;;;;;;22.52;nan;99635.69;5046378;28;20474;-71
2023/08/28 00:53:32;;;;;;;14.35;10.02;;;;;;;22.63;nan;99614.66;5029681;28;20032;-71
2023/08/28 00:55:57;;;;;;;14.77;9.90;;;;;;;22.56;nan;99628.56;5045312;28;20076;-71
2023/08/28 00:58:23;;;;;;;13.27;10.48;;;;;;;22.58;nan;99637.09;5029725;28;20040;-71
2023/08/28 01:00:48;;;;;;;13.95;9.85;;;;;;;22.56;nan;99623.22;5045928;28;20031;-71
2023/08/28 01:03:14;;;;;;;15.18;10.15;;;;;;;22.42;nan;99620.75;5046533;28;20132;-71
2023/08/28 01:05:48;;;;;;;16.40;9.90;;;;;;;22.50;nan;99640.59;5027742;28;20108;-71
2023/08/28 01:08:25;;;;;;;16.15;10.00;;;;;;;22.49;nan;99633.66;5047526;28;20032;-71
2023/08/28 01:11:04;;;;;;;12.68;9.30;;;;;;;22.39;nan;99604.53;5046861;28;20021;-71
2023/08/28 01:13:36;;;;;;;17.02;10.13;;;;;;;22.44;nan;99623.13;5045555;28;20032;-71
2023/08/28 01:16:03;;;;;;;18.00;10.70;;;;;;;22.40;nan;99557.81;5043774;28;20144;-70
2023/08/28 01:18:30;;;;;;;15.35;10.10;;;;;;;22.39;nan;99607.22;5047337;28;20032;-71
2023/08/28 01:20:57;;;;;;;15.65;10.13;;;;;;;22.33;nan;99597.75;5045388;28;20021;-70
2023/08/28 01:23:46;;;;;;;18.42;10.30;;;;;;;22.37;nan;99620.16;5028383;28;20025;-71
2023/08/28 01:26:11;;;;;;;14.82;9.52;;;;;;;;;;5024408;28;20039;-69
2023/08/28 01:28:36;;;;;;;14.00;9.70;;;;;;;22.33;nan;99617.31;5027168;28;20379;-71
2023/08/28 01:31:04;;;;;;;15.23;9.48;;;;;;;22.29;nan;99616.38;5044341;28;20025;-71
2023/08/28 01:33:30;;;;;;;14.15;10.05;;;;;;;22.27;nan;99587.22;5045697;28;20462;-71
2023/08/28 01:36:17;;;;;;;13.63;9.65;;;;;;;22.24;nan;99585.19;5044583;28;20561;-72
2023/08/28 01:38:57;;;;;;;13.07;9.00;;;;;;;22.21;nan;99601.91;5046375;28;20032;-70
2023/08/28 01:41:24;;;;;;;19.13;10.55;;;;;;;22.18;nan;99610.56;5047558;28;20500;-71
2023/08/28 01:43:54;;;;;;;13.57;9.40;;;;;;;22.14;nan;99569.41;5029029;28;20423;-70
2023/08/28 01:46:20;;;;;;;14.27;9.10;;;;;;;22.20;nan;99576.22;5046074;28;20031;-69
2023/08/28 01:48:52;;;;;;;14.73;9.50;;;;;;;22.17;nan;99638.50;5042638;28;20025;-71
2023/08/28 01:51:17;;;;;;;19.00;9.45;;;;;;;;;;5045900;28;20029;-71
2023/08/28 01:53:43;;;;;;;13.20;9.00;;;;;;;22.21;nan;99634.09;5046069;28;20588;-71
2023/08/28 01:56:08;;;;;;;14.43;9.20;;;;;;;22.26;nan;99630.44;5046574;28;20028;-69
2023/08/28 01:58:39;;;;;;;14.67;9.37;;;;;;;22.26;nan;99615.13;5046278;28;20324;-71
2023/08/28 02:01:05;;;;;;;15.13;9.60;;;;;;;22.21;nan;99676.22;5046288;28;20297;-70
2023/08/28 02:03:30;;;;;;;12.45;9.30;;;;;;;22.23;nan;99669.41;5045400;28;20021;-71
2023/08/28 02:05:57;;;;;;;13.45;9.27;;;;;;;22.15;nan;99587.09;5044613;28;20728;-70
2023/08/28 02:08:22;;;;;;;14.68;9.68;;;;;;;22.19;nan;99624.75;5047147;28;20028;-70
2023/08/28 02:10:47;;;;;;;14.38;10.13;;;;;;;22.14;nan;99617.69;5044495;28;20043;-71
2023/08/28 02:13:13;;;;;;;16.73;10.02;;;;;;;22.15;nan;99624.63;5047521;28;20505;-71
2023/08/28 02:15:38;;;;;;;14.57;10.30;;;;;;;22.08;nan;99661.88;5045931;28;20061;-69
2023/08/28 02:18:04;;;;;;;13.90;9.70;;;;;;;22.07;nan;99631.56;5046546;28;20017;-72
2023/08/28 02:20:30;;;;;;;20.70;9.45;;;;;;;21.98;nan;99589.81;5043843;28;20025;-71
2023/08/28 02:22:55;;;;;;;17.58;10.07;;;;;;;21.95;nan;99598.50;5025869;28;20031;-71
2023/08/28 02:25:23;;;;;;;15.27;9.30;;;;;;;21.95;nan;99604.66;5028585;28;20016;-72
2023/08/28 02:27:48;;;;;;;17.23;9.48;;;;;;;21.88;nan;99626.59;5045546;28;20040;-71
2023/08/28 02:30:15;;;;;;;13.52;9.63;;;;;;;21.86;nan;99754.78;5028417;28;20107;-70
2023/08/28 02:32:41;;;;;;;14.38;9.63;;;;;;;21.85;nan;99587.03;5021054;28;20053;-71
2023/08/28 02:35:07;;;;;;;12.27;9.35;;;;;;;;;;5044549;28;20032;-71
2023/08/28 02:37:32;;;;;;;16.98;9.25;;;;;;;21.88;nan;99626.59;5026378;28;20039;-71
2023/08/28 02:39:57;;;;;;;17.63;9.70;;;;;;;21.85;nan;99640.63;5044952;28;20017;-70
2023/08/28 02:42:23;;;;;;;11.70;9.07;;;;;;;21.82;nan;99638.59;5029310;28;20031;-71
2023/08/28 02:44:48;;;;;;;14.63;9.35;;;;;;;21.82;nan;99616.38;5028673;28;20074;-70
2023/08/28 02:47:13;;;;;;;15.50;9.30;;;;;;;21.75;nan;99624.09;5023052;28;20025;-70
2023/08/28 02:49:39;;;;;;;16.87;9.10;;;;;;;21.69;nan;99649.47;5027406;28;20025;-71
2023/08/28 02:52:04;;;;;;;14.13;9.15;;;;;;;21.69;nan;99644.13;5045576;28;20266;-71
2023/08/28 02:54:30;;;;;;;15.77;9.57;;;;;;;21.69;nan;99639.53;5045339;28;20106;-71
2023/08/28 02:56:55;;;;;;;14.25;8.98;;;;;;;21.70;nan;99549.25;5045353;28;20029;-71
2023/08/28 02:59:20;;;;;;;14.13;9.13;;;;;;;21.69;nan;99610.06;5048984;28;20021;-71
2023/08/28 03:01:46;;;;;;;15.25;9.02;;;;;;;21.66;nan;99610.72;5047194;28;20489;-71
2023/08/28 03:04:11;;;;;;;14.75;9.55;;;;;;;21.55;nan;99679.94;5029652;28;20039;-71
2023/08/28 03:06:37;;;;;;;12.27;8.82;;;;;;;21.61;nan;99584.88;5049081;28;20036;-70
2023/08/28 03:09:12;;;;;;;13.10;9.65;;;;;;;21.60;nan;99641.47;5049602;28;20055;-72
2023/08/28 03:11:38;;;;;;;12.15;9.90;;;;;;;21.57;nan;99639.41;5048944;28;20048;-71
2023/08/28 03:14:03;;;;;;;12.65;9.45;;;;;;;;;;5049546;28;20142;-71
2023/08/28 03:16:29;;;;;;;14.90;9.43;;;;;;;21.43;nan;99548.53;5029812;28;20033;-71
2023/08/28 03:18:54;;;;;;;13.85;9.98;;;;;;;21.42;nan;99636.09;5047814;28;20393;-72
2023/08/28 03:21:20;;;;;;;15.75;9.32;;;;;;;21.35;nan;99635.75;5029351;28;20028;-71
2023/08/28 03:23:46;;;;;;;14.90;10.25;;;;;;;21.36;nan;99621.28;5047993;28;20025;-70
2023/08/28 03:26:11;;;;;;;19.63;9.50;;;;;;;21.32;nan;99617.66;5048514;28;20060;-71
2023/08/28 03:28:36;;;;;;;16.45;9.95;;;;;;;21.24;nan;99580.97;5032075;28;20094;-72
2023/08/28 03:31:02;;;;;;;17.40;10.15;;;;;;;21.17;nan;99559.25;5050245;28;20016;-71
2023/08/28 03:33:28;;;;;;;18.58;10.00;;;;;;;21.17;nan;99613.56;5049052;28;20060;-70
2023/08/28 03:35:53;;;;;;;18.35;9.80;;;;;;;21.13;nan;99646.63;5046118;28;20116;-72
2023/08/28 03:38:19;;;;;;;15.05;10.15;;;;;;;21.16;nan;99611.19;5049077;28;20087;-71
2023/08/28 03:40:45;;;;;;;14.63;10.18;;;;;;;21.11;nan;99603.31;5047593;28;20037;-70
2023/08/28 03:43:11;;;;;;;16.27;9.63;;;;;;;21.03;nan;99613.72;5047588;28;20062;-71
2023/08/28 03:45:37;;;;;;;15.25;10.15;;;;;;;21.06;nan;99608.84;5049381;28;20479;-71
2023/08/28 03:48:03;;;;;;;16.38;10.48;;;;;;;21.03;nan;99603.00;5048985;28;20047;-72
2023/08/28 03:50:30;;;;;;;18.60;10.80;;;;;;;;;;5047745;28;20108;-72
2023/08/28 03:52:56;;;;;;;19.02;10.32;;;;;;;20.90;nan;99652.13;5046982;28;20407;-71
2023/08/28 03:55:22;;;;;;;15.05;10.30;;;;;;;20.88;nan;99634.78;5049327;28;20060;-71
2023/08/28 03:57:48;;;;;;;16.15;10.02;;;;;;;20.92;nan;99596.38;5047808;28;20513;-72
2023/08/28 04:00:14;;;;;;;15.20;10.35;;;;;;;20.91;nan;99589.47;5044462;28;20032;-71
2023/08/28 04:02:41;;;;;;;16.63;10.40;;;;;;;20.88;nan;99642.81;5026324;28;20048;-72
2023/08/28 04:05:07;;;;;;;17.50;10.65;;;;;;;20.89;nan;99543.47;5044160;28;20455;-71
2023/08/28 04:07:33;;;;;;;14.40;10.73;;;;;;;20.89;nan;99605.03;5046670;28;20025;-71
2023/08/28 04:09:59;;;;;;;18.52;11.23;;;;;;;20.89;nan;99593.56;5043539;28;20503;-71
2023/08/28 04:12:24;;;;;;;17.33;10.70;;;;;;;20.94;nan;99601.41;5043927;28;20053;-72
2023/08/28 04:14:49;;;;;;;15.18;10.05;;;;;;;20.98;nan;99647.88;5049118;28;20055;-72
2023/08/28 04:17:16;;;;;;;17.45;10.45;;;;;;;21.01;nan;99685.50;5022274;28;20497;-70
2023/08/28 04:19:41;;;;;;;16.88;10.30;;;;;;;;;;5045096;28;20081;-71
2023/08/28 04:22:06;;;;;;;18.47;10.47;;;;;;;21.09;nan;99626.94;5045697;28;20041;-71
2023/08/28 04:24:32;;;;;;;21.48;11.13;;;;;;;21.11;nan;99678.28;5037324;28;20609;-71
2023/08/28 04:26:57;;;;;;;17.05;10.35;;;;;;;21.07;nan;99658.59;5029034;28;20021;-70
2023/08/28 04:29:22;;;;;;;17.35;10.10;;;;;;;;;;5048748;28;20029;-71
2023/08/28 04:31:48;;;;;;;15.83;10.30;;;;;;;21.17;nan;99588.69;5049036;28;20032;-71
2023/08/28 04:34:14;;;;;;;17.90;9.93;;;;;;;21.22;nan;99632.16;5047622;28;20527;-72
2023/08/28 04:36:39;;;;;;;18.70;9.68;;;;;;;21.30;nan;99638.59;5048091;28;20480;-71
2023/08/28 04:39:04;;;;;;;14.85;9.93;;;;;;;21.32;nan;99641.75;5030402;28;20063;-71
2023/08/28 04:41:30;;;;;;;17.73;10.15;;;;;;;21.39;nan;99628.72;5047447;28;20048;-71
2023/08/28 04:43:55;;;;;;;14.85;10.48;;;;;;;21.40;nan;99595.47;5045219;28;20410;-70
2023/08/28 04:46:22;;;;;;;20.58;10.43;;;;;;;21.39;nan;99628.72;5029873;28;20082;-70
2023/08/28 04:48:47;;;;;;;19.45;10.32;;;;;;;;;;5046422;28;20021;-72
2023/08/28 04:51:12;;;;;;;22.13;10.85;;;;;;;21.48;nan;99682.28;5047709;28;20025;-71
2023/08/28 04:53:38;;;;;;;17.50;10.13;;;;;;;21.54;nan;99599.88;5047429;28;20050;-72
2023/08/28 04:56:04;;;;;;;18.15;10.68;;;;;;;21.63;nan;99632.78;5047610;28;20021;-72
2023/08/28 04:58:30;;;;;;;15.93;10.00;;;;;;;21.59;nan;99621.13;5047698;28;20498;-70
2023/08/28 05:00:56;;;;;;;18.70;10.20;;;;;;;21.67;nan;99599.69;5046327;28;20033;-71
2023/08/28 05:03:22;;;;;;;13.15;9.77;;;;;;;21.72;nan;99563.91;5047694;28;20090;-71
2023/08/28 05:05:47;;;;;;;18.40;10.45;;;;;;;21.78;nan;99613.53;5047347;28;20367;-72
2023/08/28 05:08:14;;;;;;;20.55;10.48;;;;;;;21.78;nan;99629.59;5048708;28;20017;-71
2023/08/28 05:10:40;;;;;;;19.75;9.80;;;;;;;21.79;nan;99590.22;5046681;28;20073;-71
2023/08/28 05:13:05;;;;;;;21.90;10.77;;;;;;;21.81;nan;99647.75;5030127;28;20057;-72
2023/08/28 05:15:31;;;;;;;21.90;10.77;;;;;;;21.91;nan;99586.84;5047568;28;20052;-72
2023/08/28 05:17:56;;;;;;;19.27;10.13;;;;;;;21.96;nan;99600.88;5045370;28;20642;-71
2023/08/28 05:20:21;;;;;;;20.70;10.07;;;;;;;22.04;nan;99621.50;5048781;28;20407;-71
2023/08/28 05:22:47;;;;;;;21.85;10.43;;;;;;;22.10;nan;99619.44;5017524;28;20029;-71
2023/08/28 05:25:12;;;;;;;26.50;10.57;;;;;;;22.21;nan;99601.13;5046663;28;20037;-72
2023/08/28 05:27:37;;;;;;;23.17;10.13;;;;;;;;;;5046771;28;20471;-73
2023/08/28 05:30:03;;;;;;;16.03;9.70;;;;;;;22.34;nan;99613.53;5047040;28;20058;-72
2023/08/28 05:32:28;;;;;;;22.90;9.63;;;;;;;22.43;nan;99610.81;5045853;28;20040;-73
2023/08/28 05:34:57;;;;;;;16.15;9.75;;;;;;;22.53;nan;99648.03;5046225;28;20041;-72
2023/08/28 05:37:23;;;;;;;18.50;10.05;;;;;;;22.59;nan;99691.53;5044909;28;20049;-72
2023/08/28 05:39:49;;;;;;;15.45;8.98;;;;;;;22.68;nan;99641.31;5045875;28;20028;-72
2023/08/28 05:42:14;;;;;;;19.50;10.20;;;;;;;22.71;nan;99656.75;5047589;28;20067;-72
2023/08/28 05:44:40;;;;;;;11.35;8.55;;;;;;;22.84;nan;99653.06;5044982;28;20471;-72
2023/08/28 05:47:06;;;;;;;15.48;9.07;;;;;;;22.93;nan;99642.25;5027744;28;20050;-70
2023/08/28 05:49:31;;;;;;;16.58;8.90;;;;;;;23.00;nan;99622.97;5044290;28;20483;-71
2023/08/28 05:51:56;;;;;;;12.75;8.18;;;;;;;;;;5047563;28;20836;-71
2023/08/28 05:54:22;;;;;;;17.05;8.65;;;;;;;23.17;nan;99659.66;5046099;28;20028;-71
2023/08/28 05:56:47;;;;;;;16.63;8.05;;;;;;;23.28;nan;99621.31;5044139;28;20021;-73
2023/08/28 05:59:12;;;;;;;15.80;8.38;;;;;;;23.27;nan;99608.22;5046232;28;20059;-71
2023/08/28 06:01:38;;;;;;;17.63;8.48;;;;;;;23.46;nan;99640.75;5043916;28;20040;-72
2023/08/28 06:04:03;;;;;;;18.73;7.97;;;;;;;23.54;nan;99641.81;5045764;28;20028;-71
2023/08/28 06:06:29;;;;;;;17.85;9.15;;;;;;;23.57;nan;99636.56;5046642;28;20025;-71
2023/08/28 06:08:54;;;;;;;18.45;7.30;;;;;;;23.69;nan;99692.25;5047330;28;20099;-69
2023/08/28 06:11:20;;;;;;;19.08;7.75;;;;;;;23.82;nan;99623.22;5039842;28;20089;-69
2023/08/28 06:13:45;;;;;;;14.07;8.38;;;;;;;23.84;nan;99633.66;5043795;28;20044;-71
2023/08/28 06:16:11;;;;;;;17.55;8.10;;;;;;;24.02;nan;99585.84;5045784;28;20039;-70
2023/08/28 06:18:36;;;;;;;11.50;7.38;;;;;;;24.13;nan;99659.59;5047045;28;20029;-69
2023/08/28 06:21:02;;;;;;;15.73;7.40;;;;;;;24.31;nan;99622.50;5026561;28;20028;-71
2023/08/28 06:23:27;;;;;;;13.15;7.15;;;;;;;24.32;nan;99608.72;5028570;28;20040;-71
2023/08/28 06:25:53;;;;;;;13.25;7.22;;;;;;;24.54;nan;99572.53;5045541;28;20017;-72
2023/08/28 06:28:19;;;;;;;16.55;8.48;;;;;;;24.62;nan;99590.44;5027625;28;20024;-71
2023/08/28 06:30:44;;;;;;;18.80;7.22;;;;;;;24.87;nan;99613.84;5027279;28;20036;-71
2023/08/28 06:33:10;;;;;;;11.23;6.35;;;;;;;25.07;nan;99610.22;5046411;28;20394;-71
2023/08/28 06:35:35;;;;;;;15.02;6.60;;;;;;;25.27;nan;99589.63;5045777;28;20029;-71
2023/08/28 06:38:01;;;;;;;10.95;6.63;;;;;;;25.38;nan;99569.16;5032059;28;20027;-70
2023/08/28 06:40:26;;;;;;;16.98;6.78;;;;;;;25.51;nan;99591.44;5048772;28;20475;-71
2023/08/28 06:42:51;;;;;;;10.60;6.50;;;;;;;25.57;nan;99583.88;5048488;28;20029;-71
2023/08/28 06:45:17;;;;;;;13.57;6.70;;;;;;;25.75;nan;99595.13;5047414;28;20110;-73
2023/08/28 06:47:42;;;;;;;11.30;6.47;;;;;;;25.78;nan;99587.09;5048505;28;20025;-71
2023/08/28 06:50:08;;;;;;;13.27;5.97;;;;;;;25.93;nan;99574.00;5048379;28;20029;-71
2023/08/28 06:52:34;;;;;;;12.38;5.90;;;;;;;26.14;nan;99582.63;5049078;28;20390;-70
2023/08/28 06:55:00;;;;;;;14.90;6.50;;;;;;;26.29;nan;99611.53;5047862;28;20029;-71
2023/08/28 06:57:25;;;;;;;11.55;5.70;;;;;;;26.51;nan;99580.38;5049090;28;20052;-68
2023/08/28 06:59:53;;;;;;;13.75;5.65;;;;;;;26.70;nan;99543.78;5030598;28;20048;-72
2023/08/28 07:02:18;;;;;;;7.82;5.13;;;;;;;26.77;nan;99557.44;5049956;28;20391;-72
2023/08/28 07:04:44;;;;;;;15.75;5.72;;;;;;;26.92;nan;99590.94;5049294;28;20021;-70
2023/08/28 07:07:09;;;;;;;10.70;5.10;;;;;;;26.99;nan;99585.66;5049349;28;20016;-70
2023/08/28 07:09:38;;;;;;;13.30;5.53;;;;;;;27.06;nan;99553.38;5047151;28;20036;-71
2023/08/28 07:12:05;;;;;;;12.40;5.03;;;;;;;27.20;nan;99600.75;5049028;28;20041;-69
2023/08/28 07:14:30;;;;;;;12.73;5.22;;;;;;;27.29;nan;99602.09;5049139;28;20021;-72
2023/08/28 07:16:55;;;;;;;11.07;5.40;;;;;;;27.44;nan;99624.00;5049502;28;20479;-70
2023/08/28 07:19:21;;;;;;;12.30;5.22;;;;;;;27.62;nan;99581.09;5048605;28;20040;-71
2023/08/28 07:21:46;;;;;;;10.93;5.30;;;;;;;27.73;nan;99573.94;5049648;28;20079;-72
2023/08/28 07:24:12;;;;;;;12.90;5.65;;;;;;;27.86;nan;99566.44;5047764;28;20056;-70
2023/08/28 07:26:37;;;;;;;9.25;4.93;;;;;;;27.90;nan;99591.66;5049659;28;20040;-70
2023/08/28 07:29:03;;;;;;;14.48;5.30;;;;;;;27.94;nan;99624.94;5031139;28;20052;-71
2023/08/28 07:31:28;;;;;;;14.27;5.25;;;;;;;28.09;nan;99596.97;5048474;28;20031;-72
2023/08/28 07:33:54;;;;;;;13.00;5.82;;;;;;;28.25;nan;99599.53;5048360;28;20155;-71
2023/08/28 07:36:23;;;;;;;10.90;5.68;;;;;;;28.37;nan;99585.00;5049098;28;20028;-71
2023/08/28 07:38:49;;;;;;;10.88;5.00;;;;;;;28.44;nan;99590.53;5048364;28;20024;-70
2023/08/28 07:41:16;;;;;;;10.05;5.22;;;;;;;28.58;nan;99614.34;5031780;28;20825;-71
2023/08/28 07:43:42;;;;;;;13.13;5.18;;;;;;;28.75;nan;99594.06;5028387;28;20025;-71
2023/08/28 07:46:08;;;;;;;6.28;4.60;;;;;;;28.77;nan;99518.63;5047707;28;20466;-72
2023/08/28 07:48:33;;;;;;;11.07;4.13;;;;;;;28.90;nan;99578.78;5048015;28;20486;-70
2023/08/28 07:50:59;;;;;;;12.73;4.93;;;;;;;29.00;nan;99523.94;5042254;28;20494;-70
2023/08/28 07:53:24;;;;;;;9.02;4.65;;;;;;;29.19;nan;99588.06;5047947;28;20108;-72
2023/08/28 07:55:50;;;;;;;8.05;4.53;;;;;;;29.33;nan;99593.66;5047653;28;20032;-70
2023/08/28 07:58:15;;;;;;;9.57;3.60;;;;;;;29.60;nan;99609.81;5044242;28;20485;-71
2023/08/28 08:00:42;;;;;;;17.67;4.10;;;;;;;29.69;nan;99526.19;5029225;28;20025;-68
2023/08/28 08:03:08;;;;;;;10.32;3.97;;;;;;;29.81;nan;99582.09;5047910;28;20055;-71
2023/08/28 08:05:33;;;;;;;11.23;3.72;;;;;;;29.79;nan;99620.47;5047145;28;20471;-70
2023/08/28 08:07:59;;;;;;;11.40;3.67;;;;;;;29.89;nan;99589.94;5023281;28;20479;-71
2023/08/28 08:10:26;;;;;;;8.77;3.10;;;;;;;29.97;nan;99555.47;5047150;28;20029;-72
2023/08/28 08:12:51;;;;;;;11.57;4.00;;;;;;;30.45;nan;99522.03;5048308;28;20048;-72
2023/08/28 08:15:17;;;;;;;9.85;4.05;;;;;;;30.52;nan;99569.03;5049413;28;20036;-73
2023/08/28 08:17:42;;;;;;;4.47;3.17;;;;;;;30.52;nan;99604.34;5047460;28;20024;-70
2023/08/28 08:20:11;;;;;;;9.13;3.70;;;;;;;30.59;nan;99562.88;5046521;28;20033;-71
2023/08/28 08:22:40;;;;;;;13.73;3.63;;;;;;;30.77;nan;99564.88;5044753;28;20482;-71
2023/08/28 08:25:09;;;;;;;11.10;4.10;;;;;;;30.89;nan;99573.53;5049554;28;20110;-71
2023/08/28 08:27:34;;;;;;;8.57;3.58;;;;;;;30.90;nan;99549.81;5047706;28;20118;-70
2023/08/28 08:30:00;;;;;;;9.07;3.80;;;;;;;31.05;nan;99559.56;5029870;28;20021;-72
2023/08/28 08:32:25;;;;;;;7.40;3.78;;;;;;;31.16;nan;99546.03;5047002;28;20029;-72
2023/08/28 08:34:50;;;;;;;7.25;3.78;;;;;;;31.30;nan;99516.13;5046467;28;20032;-72
2023/08/28 08:37:16;;;;;;;7.85;3.60;;;;;;;31.38;nan;99533.22;5045538;28;20455;-71
2023/08/28 08:39:42;;;;;;;12.25;3.72;;;;;;;31.57;nan;99560.09;5047417;28;20052;-70
2023/08/28 08:42:08;;;;;;;8.93;3.53;;;;;;;31.60;nan;99546.88;5028085;28;20677;-70
2023/08/28 08:44:34;;;;;;;8.40;3.53;;;;;;;31.65;nan;99539.09;5048803;28;20025;-69
2023/08/28 08:47:03;;;;;;;8.05;3.60;;;;;;;31.77;nan;99508.00;5047012;28;20541;-68
2023/08/28 08:49:31;;;;;;;9.63;3.55;;;;;;;31.82;nan;99567.47;5047624;28;20032;-68
2023/08/28 08:52:00;;;;;;;6.27;3.60;;;;;;;32.02;nan;99515.41;5048314;28;20028;-70
2023/08/28 08:54:34;;;;;;;10.90;3.15;;;;;;;32.06;nan;99546.09;5043386;28;20087;-70
2023/08/28 08:57:06;;;;;;;12.43;3.25;;;;;;;32.14;nan;99528.59;5038812;28;20021;-70
2023/08/28 08:59:32;;;;;;;7.95;3.30;;;;;;;32.26;nan;99530.91;5045580;28;20033;-71
2023/08/28 09:02:02;;;;;;;10.60;3.40;;;;;;;32.35;nan;99519.56;5045650;28;20029;-72
2023/08/28 09:04:28;;;;;;;6.07;3.42;;;;;;;32.45;nan;99586.91;5028903;28;20386;-72
2023/08/28 09:06:55;;;;;;;4.57;3.20;;;;;;;32.53;nan;99514.09;5028555;28;20016;-72
2023/08/28 09:09:21;;;;;;;8.45;3.53;;;;;;;32.63;nan;99524.19;5046113;28;20031;-72
2023/08/28 09:11:48;;;;;;;9.38;3.35;;;;;;;32.66;nan;99575.19;5045533;28;20127;-72
2023/08/28 09:14:14;;;;;;;7.57;3.40;;;;;;;32.82;nan;99537.31;5044003;28;20029;-70
2023/08/28 09:16:40;;;;;;;7.60;3.42;;;;;;;32.90;nan;99520.94;5046105;28;20021;-71
2023/08/28 09:19:06;;;;;;;12.25;3.22;;;;;;;32.97;nan;99469.88;5045853;28;20095;-70
2023/08/28 09:21:37;;;;;;;6.53;3.00;;;;;;;32.99;nan;99494.00;5046558;28;20094;-70
2023/08/28 09:24:08;;;;;;;10.00;3.30;;;;;;;33.08;nan;99518.91;5044740;28;20136;-73
2023/08/28 09:26:36;;;;;;;7.93;3.38;;;;;;;33.10;nan;99530.22;5045937;28;20025;-71
2023/08/28 09:29:04;;;;;;;10.13;3.25;;;;;;;33.17;nan;99534.84;5020445;28;20028;-71
2023/08/28 09:31:30;;;;;;;6.90;3.33;;;;;;;33.23;nan;99520.38;5027665;28;20433;-72
2023/08/28 09:33:56;;;;;;;5.30;3.42;;;;;;;33.33;nan;99468.84;5027114;28;20067;-70
2023/08/28 09:36:21;;;;;;;10.68;3.10;;;;;;;33.39;nan;99489.84;5046043;28;20033;-71
2023/08/28 09:38:47;;;;;;;10.38;3.55;;;;;;;33.41;nan;99489.47;5044037;28;20501;-71
2023/08/28 09:41:12;;;;;;;6.28;3.13;;;;;;;33.45;nan;99517.47;5028479;28;20031;-72
2023/08/28 09:43:38;;;;;;;4.68;3.13;;;;;;;33.58;nan;99485.81;5043965;28;20455;-71
2023/08/28 09:46:05;;;;;;;11.90;3.30;;;;;;;33.64;nan;99481.50;5027719;28;20152;-72
2023/08/28 09:48:34;;;;;;;10.95;4.25;;;;;;;33.70;nan;99490.00;5044236;28;20120;-71
2023/08/28 09:51:06;;;;;;;7.20;3.47;;;;;;;33.76;nan;99528.56;5045437;28;20035;-72
2023/08/28 09:53:32;;;;;;;8.65;3.35;;;;;;;33.81;nan;99481.72;5044820;28;20075;-71
2023/08/28 09:55:58;;;;;;;11.18;3.50;;;;;;;33.90;nan;99476.53;5046679;28;20025;-72
2023/08/28 09:58:26;;;;;;;10.52;3.67;;;;;;;33.92;nan;99449.59;5026357;28;20091;-73
2023/08/28 10:00:52;;;;;;;9.83;3.00;;;;;;;34.04;nan;99457.28;5047507;28;20029;-71
2023/08/28 10:03:20;;;;;;;14.00;3.40;;;;;;;33.99;nan;99427.69;5025899;28;20029;-71
2023/08/28 10:05:47;;;;;;;11.02;2.97;;;;;;;34.13;nan;99439.66;5045648;28;20017;-72
2023/08/28 10:08:14;;;;;;;6.80;3.10;;;;;;;34.21;nan;99444.63;5044068;28;20572;-72
2023/08/28 10:10:41;;;;;;;11.73;3.42;;;;;;;34.30;nan;99446.84;5046383;28;20553;-74
2023/08/28 10:13:14;;;;;;;9.27;3.10;;;;;;;34.38;nan;99447.53;5046484;28;20061;-71
2023/08/28 10:15:51;;;;;;;9.80;2.83;;;;;;;34.41;nan;99452.97;5026799;28;20032;-71
2023/08/28 10:18:53;;;;;;;10.70;3.78;;;;;;;34.45;nan;99434.53;5046454;28;20083;-72
2023/08/28 10:21:20;;;;;;;9.73;2.95;;;;;;;34.53;nan;99452.41;5004867;28;20089;-70
2023/08/28 10:23:46;;;;;;;23.67;3.90;;;;;;;34.55;nan;99471.13;5036667;28;20029;-72
2023/08/28 10:26:13;;;;;;;8.80;3.13;;;;;;;34.62;nan;99453.88;5044770;28;20566;-73
2023/08/28 10:28:39;;;;;;;5.22;3.03;;;;;;;34.61;nan;99435.94;5046015;28;20040;-74
2023/08/28 10:31:07;;;;;;;6.75;3.03;;;;;;;34.64;nan;99419.47;5044884;28;20506;-69
2023/08/28 10:33:34;;;;;;;6.50;3.00;;;;;;;34.69;nan;99413.53;5046345;28;20108;-70
2023/08/28 10:36:01;;;;;;;6.25;2.85;;;;;;;34.78;nan;99453.28;5045619;28;20025;-71
2023/08/28 10:38:27;;;;;;;6.70;2.60;;;;;;;34.85;nan;99445.75;5044930;28;20124;-69
2023/08/28 10:40:58;;;;;;;5.65;2.70;;;;;;;34.89;nan;99427.31;5045769;28;20100;-72
2023/08/28 10:43:25;;;;;;;10.07;2.60;;;;;;;34.93;nan;99414.38;5044753;28;20450;-71
2023/08/28 10:45:54;;;;;;;15.30;2.80;;;;;;;34.90;nan;99390.56;5045030;28;20017;-71
2023/08/28 10:48:20;;;;;;;14.73;2.97;;;;;;;34.93;nan;99372.53;5043429;28;20021;-70
2023/08/28 10:50:46;;;;;;;13.90;2.72;;;;;;;34.93;nan;99384.28;5047142;28;20416;-71
2023/08/28 10:53:14;;;;;;;7.57;2.60;;;;;;;34.99;nan;99375.59;5043908;28;20025;-71
2023/08/28 10:56:10;;;;;;;5.30;2.58;;;;;;;34.94;nan;99376.84;5044873;28;20064;-71
2023/08/28 10:58:38;;;;;;;5.72;2.40;;;;;;;35.12;nan;99382.03;5043173;28;20044;-71
2023/08/28 11:01:23;;;;;;;9.45;2.90;;;;;;;35.15;nan;99373.78;5045192;28;20048;-71
2023/08/28 11:03:58;;;;;;;6.68;2.35;;;;;;;35.14;nan;99374.19;5023013;28;20720;-71
2023/08/28 11:06:43;;;;;;;11.38;2.75;;;;;;;35.21;nan;99385.00;5042508;28;20028;-71
2023/08/28 11:09:27;;;;;;;9.68;2.75;;;;;;;35.24;nan;99388.88;5046107;28;20036;-71
2023/08/28 11:12:16;;;;;;;17.98;2.85;;;;;;;35.23;nan;99362.72;5042394;28;20580;-70
2023/08/28 11:14:55;;;;;;;7.13;2.90;;;;;;;35.26;nan;99387.25;5033498;28;20099;-71
2023/08/28 11:17:22;;;;;;;10.57;2.50;;;;;;;35.27;nan;99375.16;5044020;28;20039;-73
2023/08/28 11:19:53;;;;;;;8.50;2.50;;;;;;;35.30;nan;99374.31;5046335;28;20078;-71
2023/08/28 11:22:37;;;;;;;4.03;2.42;;;;;;;35.32;nan;99349.25;5049717;28;20040;-71
2023/08/28 11:25:35;;;;;;;8.18;2.80;;;;;;;35.32;nan;99368.41;5049894;28;20478;-71
2023/08/28 11:28:01;;;;;;;6.53;2.42;;;;;;;35.33;nan;99367.22;5042468;28;20085;-69
2023/08/28 11:30:26;;;;;;;6.18;2.35;;;;;;;35.35;nan;99422.31;5049601;28;20021;-76
2023/08/28 11:32:53;;;;;;;7.40;2.80;;;;;;;35.35;nan;99356.63;5032496;28;20017;-76
2023/08/28 11:35:20;;;;;;;10.93;2.70;;;;;;;35.37;nan;99417.19;5027395;28;20098;-74
2023/08/28 11:37:47;;;;;;;13.57;2.88;;;;;;;35.38;nan;99298.28;5047014;28;20086;-72
2023/08/28 11:40:18;;;;;;;13.00;2.47;;;;;;;35.40;nan;99356.13;5047410;28;20025;-71
2023/08/28 11:42:46;;;;;;;6.50;2.45;;;;;;;35.45;nan;99352.13;5049138;28;20025;-70
2023/08/28 11:45:19;;;;;;;9.02;2.60;;;;;;;35.47;nan;99344.28;5030126;28;20102;-70